createdAt,value
2018-01-29T00:00:38.224Z,10.86
2018-01-29T00:01:37.704Z,10.72
2018-01-29T00:02:38.017Z,10.79
2018-01-29T00:03:38.058Z,10.72
2018-01-29T00:04:38.355Z,10.78
2018-01-29T00:05:37.782Z,10.89
2018-01-29T00:06:37.797Z,10.79
2018-01-29T00:07:38.340Z,10.82
2018-01-29T00:08:38.457Z,10.86
2018-01-29T00:09:38.402Z,10.9
2018-01-29T00:10:38.412Z,10.78
2018-01-29T00:11:37.863Z,10.96
2018-01-29T00:12:38.447Z,10.81
2018-01-29T00:13:38.203Z,10.84
2018-01-29T00:14:38.170Z,10.76
2018-01-29T00:15:37.932Z,10.81
2018-01-29T00:16:38.496Z,10.78
2018-01-29T00:17:38.540Z,10.79
2018-01-29T00:18:38.366Z,10.82
2018-01-29T00:19:38.259Z,10.79
2018-01-29T00:20:38.571Z,10.84
2018-01-29T00:21:38.020Z,10.78
2018-01-29T00:22:38.273Z,10.76
2018-01-29T00:23:38.040Z,10.81
2018-01-29T00:24:38.344Z,10.78
2018-01-29T00:25:38.071Z,10.79
2018-01-29T00:26:38.394Z,10.78
2018-01-29T00:27:38.642Z,10.74
2018-01-29T00:28:38.387Z,10.81
2018-01-29T00:29:38.692Z,10.75
2018-01-29T00:30:38.457Z,10.78
2018-01-29T00:31:38.734Z,10.75
2018-01-29T00:32:38.191Z,10.84
2018-01-29T00:33:38.761Z,10.79
2018-01-29T00:34:38.765Z,10.75
2018-01-29T00:35:38.765Z,10.81
2018-01-29T00:36:38.524Z,10.79
2018-01-29T00:37:38.551Z,10.78
2018-01-29T00:38:38.543Z,10.82
2018-01-29T00:39:38.574Z,10.81
2018-01-29T00:40:38.544Z,10.74
2018-01-29T00:41:38.621Z,10.84
2018-01-29T00:42:38.335Z,10.81
2018-01-29T00:43:38.870Z,10.81
2018-01-29T00:44:38.638Z,10.84
2018-01-29T00:45:38.617Z,10.78
2018-01-29T00:46:38.689Z,10.79
2018-01-29T00:47:38.710Z,10.76
2018-01-29T00:48:38.910Z,10.81
2018-01-29T00:49:38.413Z,10.82
2018-01-29T00:50:38.701Z,10.78
2018-01-29T00:51:38.471Z,10.79
2018-01-29T00:52:39.041Z,10.81
2018-01-29T00:53:38.746Z,10.81
2018-01-29T00:54:38.472Z,10.79
2018-01-29T00:55:38.818Z,10.81
2018-01-29T00:56:39.096Z,10.78
2018-01-29T00:57:38.846Z,10.82
2018-01-29T00:58:38.877Z,10.81
2018-01-29T00:59:38.600Z,10.84
2018-01-29T01:00:38.886Z,10.84
2018-01-29T01:01:38.575Z,10.76
2018-01-29T01:02:38.917Z,10.79
2018-01-29T01:03:39.227Z,10.79
2018-01-29T01:04:38.962Z,10.86
2018-01-29T01:05:39.197Z,10.79
2018-01-29T01:06:38.933Z,10.79
2018-01-29T01:07:38.968Z,10.78
2018-01-29T01:08:39.112Z,10.78
2018-01-29T01:09:39.327Z,10.76
2018-01-29T01:10:39.011Z,10.81
2018-01-29T01:11:39.359Z,10.79
2018-01-29T01:12:39.334Z,10.75
2018-01-29T01:13:39.357Z,10.81
2018-01-29T01:14:39.383Z,10.81
2018-01-29T01:15:39.412Z,10.81
2018-01-29T01:16:39.436Z,10.84
2018-01-29T01:17:38.846Z,10.74
2018-01-29T01:18:39.171Z,10.78
2018-01-29T01:19:38.878Z,10.81
2018-01-29T01:20:39.239Z,10.89
2018-01-29T01:21:39.164Z,10.84
2018-01-29T01:22:38.909Z,10.79
2018-01-29T01:23:39.509Z,10.78
2018-01-29T01:24:39.223Z,10.76
2018-01-29T01:25:38.966Z,10.82
2018-01-29T01:26:39.508Z,10.79
2018-01-29T01:27:39.246Z,10.79
2018-01-29T01:28:39.269Z,10.78
2018-01-29T01:29:39.017Z,10.74
2018-01-29T01:30:39.322Z,10.79
2018-01-29T01:31:39.078Z,10.79
2018-01-29T01:32:39.071Z,10.81
2018-01-29T01:33:39.391Z,10.76
2018-01-29T01:34:39.391Z,10.79
2018-01-29T01:35:39.426Z,10.81
2018-01-29T01:36:39.154Z,10.75
2018-01-29T01:37:39.744Z,10.82
2018-01-29T01:38:39.519Z,10.79
2018-01-29T01:39:39.783Z,10.92
2018-01-29T01:40:39.471Z,10.75
2018-01-29T01:41:39.788Z,10.81
2018-01-29T01:42:39.534Z,10.81
2018-01-29T01:43:39.771Z,10.82
2018-01-29T01:44:39.522Z,10.76
2018-01-29T01:45:39.252Z,10.78
2018-01-29T01:46:39.857Z,10.75
2018-01-29T01:47:39.284Z,10.76
2018-01-29T01:48:39.594Z,10.79
2018-01-29T01:49:39.886Z,10.84
2018-01-29T01:50:39.609Z,10.79
2018-01-29T01:51:39.632Z,10.9
2018-01-29T01:52:39.983Z,10.79
2018-01-29T01:53:39.438Z,10.78
2018-01-29T01:54:39.970Z,10.82
2018-01-29T01:55:39.681Z,10.84
2018-01-29T01:56:39.419Z,10.79
2018-01-29T01:57:39.765Z,10.81
2018-01-29T01:58:39.757Z,10.84
2018-01-29T01:59:40.032Z,10.81
2018-01-29T02:00:39.818Z,10.79
2018-01-29T02:01:39.506Z,10.82
2018-01-29T02:02:39.818Z,10.75
2018-01-29T02:03:39.654Z,10.86
2018-01-29T02:04:40.142Z,10.76
2018-01-29T02:05:39.843Z,10.78
2018-01-29T02:06:39.578Z,10.76
2018-01-29T02:07:40.138Z,10.76
2018-01-29T02:08:39.859Z,10.81
2018-01-29T02:09:40.214Z,10.84
2018-01-29T02:10:39.957Z,10.78
2018-01-29T02:11:39.646Z,10.78
2018-01-29T02:12:39.648Z,10.79
2018-01-29T02:13:39.959Z,10.78
2018-01-29T02:14:40.257Z,10.79
2018-01-29T02:15:40.273Z,10.82
2018-01-29T02:16:40.017Z,10.82
2018-01-29T02:17:40.037Z,10.81
2018-01-29T02:18:40.307Z,10.81
2018-01-29T02:19:39.772Z,10.76
2018-01-29T02:20:40.038Z,10.81
2018-01-29T02:21:40.372Z,10.78
2018-01-29T02:22:40.408Z,10.79
2018-01-29T02:23:39.822Z,10.79
2018-01-29T02:24:40.371Z,10.82
2018-01-29T02:25:40.175Z,10.84
2018-01-29T02:26:39.902Z,10.92
2018-01-29T02:27:40.451Z,10.79
2018-01-29T02:28:40.456Z,10.79
2018-01-29T02:29:40.564Z,10.79
2018-01-29T02:30:40.483Z,10.78
2018-01-29T02:31:40.209Z,10.78
2018-01-29T02:32:39.944Z,10.79
2018-01-29T02:33:40.551Z,10.81
2018-01-29T02:34:40.559Z,10.78
2018-01-29T02:35:40.012Z,10.84
2018-01-29T02:36:40.294Z,10.79
2018-01-29T02:37:40.327Z,10.81
2018-01-29T02:38:40.338Z,10.78
2018-01-29T02:39:40.423Z,10.81
2018-01-29T02:40:40.678Z,10.79
2018-01-29T02:41:40.354Z,10.81
2018-01-29T02:42:40.747Z,10.79
2018-01-29T02:43:40.432Z,10.76
2018-01-29T02:44:40.169Z,10.79
2018-01-29T02:45:40.477Z,10.81
2018-01-29T02:46:40.440Z,10.79
2018-01-29T02:47:40.549Z,10.93
2018-01-29T02:48:40.497Z,10.76
2018-01-29T02:49:40.538Z,10.81
2018-01-29T02:50:40.508Z,10.75
2018-01-29T02:51:40.549Z,10.93
2018-01-29T02:52:40.534Z,10.79
2018-01-29T02:53:40.852Z,10.84
2018-01-29T02:54:40.611Z,10.81
2018-01-29T02:55:40.569Z,10.81
2018-01-29T02:56:40.315Z,10.81
2018-01-29T02:57:40.896Z,10.84
2018-01-29T02:58:40.882Z,10.81
2018-01-29T02:59:40.409Z,10.9
2018-01-29T03:00:40.992Z,10.86
2018-01-29T03:01:40.660Z,10.79
2018-01-29T03:02:40.674Z,10.76
2018-01-29T03:03:40.989Z,10.82
2018-01-29T03:04:40.988Z,10.75
2018-01-29T03:05:40.427Z,10.84
2018-01-29T03:06:41.004Z,10.89
2018-01-29T03:07:40.736Z,10.86
2018-01-29T03:08:40.508Z,10.78
2018-01-29T03:09:40.820Z,10.75
2018-01-29T03:10:40.804Z,10.81
2018-01-29T03:11:40.829Z,10.81
2018-01-29T03:12:40.545Z,10.93
2018-01-29T03:13:40.847Z,10.84
2018-01-29T03:14:40.560Z,10.75
2018-01-29T03:15:40.897Z,10.82
2018-01-29T03:16:40.617Z,10.82
2018-01-29T03:17:40.706Z,10.75
2018-01-29T03:18:41.226Z,10.79
2018-01-29T03:19:40.986Z,10.84
2018-01-29T03:20:40.974Z,10.74
2018-01-29T03:21:40.976Z,10.81
2018-01-29T03:22:41.012Z,10.76
2018-01-29T03:23:40.995Z,10.75
2018-01-29T03:24:41.151Z,10.75
2018-01-29T03:25:41.088Z,10.86
2018-01-29T03:26:41.377Z,10.86
2018-01-29T03:27:41.329Z,10.81
2018-01-29T03:28:40.782Z,10.75
2018-01-29T03:29:40.859Z,10.84
2018-01-29T03:30:41.401Z,10.81
2018-01-29T03:31:41.131Z,10.86
2018-01-29T03:32:41.141Z,10.79
2018-01-29T03:33:41.190Z,10.81
2018-01-29T03:34:41.174Z,10.81
2018-01-29T03:35:41.198Z,10.79
2018-01-29T03:36:41.567Z,10.78
2018-01-29T03:37:41.226Z,10.9
2018-01-29T03:38:40.941Z,10.76
2018-01-29T03:39:40.936Z,10.81
2018-01-29T03:40:40.961Z,10.79
2018-01-29T03:41:40.966Z,10.81
2018-01-29T03:42:41.549Z,10.81
2018-01-29T03:43:41.028Z,10.78
2018-01-29T03:44:41.062Z,10.89
2018-01-29T03:45:41.337Z,10.81
2018-01-29T03:46:41.079Z,10.81
2018-01-29T03:47:41.347Z,10.89
2018-01-29T03:48:41.358Z,10.87
2018-01-29T03:49:41.542Z,10.92
2018-01-29T03:50:41.415Z,10.78
2018-01-29T03:51:41.461Z,10.82
2018-01-29T03:52:41.474Z,10.87
2018-01-29T03:53:41.734Z,10.89
2018-01-29T03:54:41.212Z,10.86
2018-01-29T03:55:41.485Z,10.79
2018-01-29T03:56:41.203Z,10.89
2018-01-29T03:57:41.494Z,10.75
2018-01-29T03:58:41.841Z,10.76
2018-01-29T03:59:41.583Z,10.79
2018-01-29T04:00:41.599Z,10.86
2018-01-29T04:01:41.318Z,10.9
2018-01-29T04:02:41.589Z,10.84
2018-01-29T04:03:41.886Z,10.81
2018-01-29T04:04:41.643Z,10.89
2018-01-29T04:05:41.638Z,10.81
2018-01-29T04:06:41.639Z,10.9
2018-01-29T04:07:41.964Z,10.79
2018-01-29T04:08:41.376Z,10.75
2018-01-29T04:09:41.698Z,10.82
2018-01-29T04:10:41.398Z,10.82
2018-01-29T04:11:41.725Z,10.78
2018-01-29T04:12:42.008Z,10.79
2018-01-29T04:13:42.081Z,10.86
2018-01-29T04:14:41.736Z,10.92
2018-01-29T04:15:41.765Z,10.89
2018-01-29T04:16:41.820Z,10.75
2018-01-29T04:17:41.794Z,10.76
2018-01-29T04:18:41.866Z,10.79
2018-01-29T04:19:41.848Z,10.86
2018-01-29T04:20:41.582Z,10.82
2018-01-29T04:21:41.573Z,10.74
2018-01-29T04:22:41.610Z,10.84
2018-01-29T04:23:41.935Z,10.78
2018-01-29T04:24:42.230Z,10.76
2018-01-29T04:25:41.936Z,10.82
2018-01-29T04:26:41.640Z,10.94
2018-01-29T04:27:41.945Z,10.82
2018-01-29T04:28:42.006Z,10.78
2018-01-29T04:29:41.744Z,10.76
2018-01-29T04:30:41.751Z,10.79
2018-01-29T04:31:41.734Z,10.79
2018-01-29T04:32:42.289Z,10.76
2018-01-29T04:33:41.751Z,10.79
2018-01-29T04:34:42.084Z,10.93
2018-01-29T04:35:41.817Z,10.81
2018-01-29T04:36:42.099Z,10.78
2018-01-29T04:37:41.849Z,10.81
2018-01-29T04:38:42.098Z,10.79
2018-01-29T04:39:42.457Z,10.92
2018-01-29T04:40:42.446Z,10.93
2018-01-29T04:41:42.185Z,10.86
2018-01-29T04:42:42.179Z,10.79
2018-01-29T04:43:41.903Z,10.75
2018-01-29T04:44:41.939Z,10.81
2018-01-29T04:45:41.966Z,10.74
2018-01-29T04:46:42.218Z,10.93
2018-01-29T04:47:42.274Z,10.76
2018-01-29T04:48:42.569Z,10.78
2018-01-29T04:49:42.293Z,10.79
2018-01-29T04:50:42.076Z,10.81
2018-01-29T04:51:42.336Z,10.86
2018-01-29T04:52:42.359Z,10.79
2018-01-29T04:53:42.643Z,10.78
2018-01-29T04:54:42.399Z,10.82
2018-01-29T04:55:42.364Z,10.78
2018-01-29T04:56:42.403Z,10.81
2018-01-29T04:57:42.460Z,10.82
2018-01-29T04:58:42.740Z,10.93
2018-01-29T04:59:42.441Z,10.89
2018-01-29T05:00:42.179Z,10.74
2018-01-29T05:01:42.462Z,10.75
2018-01-29T05:02:42.455Z,10.86
2018-01-29T05:03:42.233Z,10.87
2018-01-29T05:04:42.775Z,10.81
2018-01-29T05:05:42.262Z,10.79
2018-01-29T05:06:42.534Z,10.84
2018-01-29T05:07:42.531Z,10.79
2018-01-29T05:08:42.835Z,10.79
2018-01-29T05:09:42.313Z,10.81
2018-01-29T05:10:42.953Z,10.82
2018-01-29T05:11:42.612Z,10.79
2018-01-29T05:12:42.367Z,10.76
2018-01-29T05:13:42.967Z,10.81
2018-01-29T05:14:42.672Z,10.81
2018-01-29T05:15:42.684Z,10.82
2018-01-29T05:16:42.981Z,10.76
2018-01-29T05:17:42.692Z,10.78
2018-01-29T05:18:42.740Z,10.82
2018-01-29T05:19:42.721Z,10.84
2018-01-29T05:20:42.478Z,10.78
2018-01-29T05:21:42.774Z,10.79
2018-01-29T05:22:42.778Z,10.82
2018-01-29T05:23:42.513Z,10.9
2018-01-29T05:24:42.590Z,10.89
2018-01-29T05:25:42.920Z,10.81
2018-01-29T05:26:42.881Z,10.86
2018-01-29T05:27:42.860Z,10.78
2018-01-29T05:28:42.586Z,10.81
2018-01-29T05:29:42.915Z,10.79
2018-01-29T05:30:42.885Z,10.74
2018-01-29T05:31:42.937Z,10.82
2018-01-29T05:32:43.607Z,10.82
2018-01-29T05:33:42.964Z,10.76
2018-01-29T05:34:42.944Z,10.82
2018-01-29T05:35:42.868Z,10.74
2018-01-29T05:36:42.995Z,10.81
2018-01-29T05:37:43.047Z,10.75
2018-01-29T05:38:43.025Z,10.84
2018-01-29T05:39:42.728Z,10.81
2018-01-29T05:40:43.058Z,10.79
2018-01-29T05:41:43.094Z,10.82
2018-01-29T05:42:43.089Z,10.81
2018-01-29T05:43:42.801Z,10.81
2018-01-29T05:44:43.396Z,10.81
2018-01-29T05:45:43.140Z,10.79
2018-01-29T05:46:43.144Z,10.79
2018-01-29T05:47:42.897Z,10.87
2018-01-29T05:48:42.886Z,10.84
2018-01-29T05:49:42.914Z,10.81
2018-01-29T05:50:43.238Z,10.81
2018-01-29T05:51:43.190Z,10.81
2018-01-29T05:52:43.216Z,10.79
2018-01-29T05:53:43.258Z,10.82
2018-01-29T05:54:43.557Z,10.79
2018-01-29T05:55:43.003Z,10.79
2018-01-29T05:56:43.605Z,10.92
2018-01-29T05:57:43.356Z,10.81
2018-01-29T05:58:43.346Z,10.87
2018-01-29T05:59:43.589Z,10.87
2018-01-29T06:00:43.407Z,10.89
2018-01-29T06:01:43.594Z,10.82
2018-01-29T06:02:43.709Z,10.82
2018-01-29T06:03:43.366Z,10.78
2018-01-29T06:04:43.431Z,10.82
2018-01-29T06:05:43.201Z,10.81
2018-01-29T06:06:43.163Z,10.9
2018-01-29T06:07:43.171Z,10.79
2018-01-29T06:08:43.772Z,10.86
2018-01-29T06:09:43.587Z,10.76
2018-01-29T06:10:43.816Z,10.76
2018-01-29T06:11:43.770Z,10.74
2018-01-29T06:12:43.277Z,10.81
2018-01-29T06:13:43.268Z,10.72
2018-01-29T06:14:43.307Z,10.81
2018-01-29T06:15:43.605Z,10.82
2018-01-29T06:16:43.292Z,10.74
2018-01-29T06:17:43.621Z,10.78
2018-01-29T06:18:44.339Z,10.72
2018-01-29T06:19:43.363Z,10.79
2018-01-29T06:20:44.127Z,10.74
2018-01-29T06:21:43.692Z,10.82
2018-01-29T06:22:43.725Z,10.76
2018-01-29T06:23:44.011Z,10.71
2018-01-29T06:24:43.712Z,10.79
2018-01-29T06:25:43.757Z,10.86
2018-01-29T06:26:43.430Z,10.81
2018-01-29T06:27:43.778Z,10.79
2018-01-29T06:28:43.772Z,10.82
2018-01-29T06:29:43.475Z,10.74
2018-01-29T06:30:43.539Z,10.79
2018-01-29T06:31:43.526Z,10.78
2018-01-29T06:32:43.835Z,10.78
2018-01-29T06:33:44.126Z,10.79
2018-01-29T06:34:44.149Z,10.72
2018-01-29T06:35:44.205Z,10.72
2018-01-29T06:36:43.632Z,10.71
2018-01-29T06:37:43.883Z,10.84
2018-01-29T06:38:43.658Z,10.81
2018-01-29T06:39:43.916Z,10.84
2018-01-29T06:40:43.663Z,10.76
2018-01-29T06:41:43.677Z,10.76
2018-01-29T06:42:43.702Z,10.79
2018-01-29T06:43:44.089Z,10.79
2018-01-29T06:44:43.720Z,10.78
2018-01-29T06:45:44.059Z,10.82
2018-01-29T06:46:44.065Z,10.74
2018-01-29T06:47:44.086Z,10.89
2018-01-29T06:48:44.114Z,10.74
2018-01-29T06:49:44.124Z,10.81
2018-01-29T06:50:44.278Z,10.79
2018-01-29T06:51:43.806Z,10.74
2018-01-29T06:52:43.850Z,10.81
2018-01-29T06:53:43.858Z,10.75
2018-01-29T06:54:44.193Z,10.74
2018-01-29T06:55:43.863Z,10.76
2018-01-29T06:56:44.441Z,10.87
2018-01-29T06:57:44.454Z,10.92
2018-01-29T06:58:43.928Z,10.78
2018-01-29T06:59:44.582Z,10.72
2018-01-29T07:00:44.264Z,10.92
2018-01-29T07:01:44.293Z,10.74
2018-01-29T07:02:44.022Z,10.74
2018-01-29T07:03:44.039Z,10.69
2018-01-29T07:04:44.323Z,10.76
2018-01-29T07:05:44.046Z,10.79
2018-01-29T07:06:44.628Z,10.87
2018-01-29T07:07:44.095Z,10.84
2018-01-29T07:08:44.402Z,10.86
2018-01-29T07:09:44.094Z,10.79
2018-01-29T07:10:44.379Z,10.79
2018-01-29T07:11:44.695Z,10.75
2018-01-29T07:12:44.150Z,10.89
2018-01-29T07:13:44.426Z,10.86
2018-01-29T07:14:44.738Z,10.74
2018-01-29T07:15:44.456Z,10.76
2018-01-29T07:16:44.487Z,10.74
2018-01-29T07:17:44.223Z,10.79
2018-01-29T07:18:44.809Z,10.79
2018-01-29T07:19:44.257Z,10.71
2018-01-29T07:20:44.289Z,10.81
2018-01-29T07:21:44.557Z,10.78
2018-01-29T07:22:44.546Z,10.76
2018-01-29T07:23:44.890Z,10.82
2018-01-29T07:24:44.584Z,10.79
2018-01-29T07:25:44.652Z,10.84
2018-01-29T07:26:44.380Z,10.81
2018-01-29T07:27:44.660Z,10.84
2018-01-29T07:28:44.681Z,10.78
2018-01-29T07:29:44.402Z,10.9
2018-01-29T07:30:44.682Z,10.79
2018-01-29T07:31:45.015Z,10.79
2018-01-29T07:32:44.415Z,10.81
2018-01-29T07:33:44.752Z,10.75
2018-01-29T07:34:45.048Z,10.79
2018-01-29T07:35:44.512Z,10.81
2018-01-29T07:36:45.124Z,10.81
2018-01-29T07:37:45.123Z,10.79
2018-01-29T07:38:44.798Z,10.74
2018-01-29T07:39:44.808Z,10.79
2018-01-29T07:40:44.557Z,10.75
2018-01-29T07:41:45.121Z,10.79
2018-01-29T07:42:44.905Z,10.9
2018-01-29T07:43:44.878Z,10.92
2018-01-29T07:44:44.904Z,10.81
2018-01-29T07:45:44.622Z,10.81
2018-01-29T07:46:44.773Z,10.78
2018-01-29T07:47:44.672Z,10.79
2018-01-29T07:48:44.950Z,10.86
2018-01-29T07:49:45.266Z,10.86
2018-01-29T07:50:44.717Z,10.78
2018-01-29T07:51:45.002Z,10.84
2018-01-29T07:52:45.344Z,10.81
2018-01-29T07:53:45.015Z,10.86
2018-01-29T07:54:45.302Z,10.9
2018-01-29T07:55:44.806Z,10.81
2018-01-29T07:56:45.169Z,10.76
2018-01-29T07:57:45.424Z,10.84
2018-01-29T07:58:45.143Z,10.81
2018-01-29T07:59:45.127Z,10.81
2018-01-29T08:00:44.874Z,10.82
2018-01-29T08:01:45.198Z,10.9
2018-01-29T08:02:44.904Z,10.86
2018-01-29T08:03:45.505Z,10.79
2018-01-29T08:04:44.944Z,10.75
2018-01-29T08:05:45.218Z,10.75
2018-01-29T08:06:45.411Z,10.75
2018-01-29T08:07:45.249Z,10.81
2018-01-29T08:08:45.274Z,10.84
2018-01-29T08:09:45.312Z,10.78
2018-01-29T08:10:45.289Z,10.82
2018-01-29T08:11:45.341Z,10.84
2018-01-29T08:12:45.603Z,10.9
2018-01-29T08:13:45.359Z,10.9
2018-01-29T08:14:45.074Z,10.84
2018-01-29T08:15:45.660Z,10.81
2018-01-29T08:16:45.118Z,10.84
2018-01-29T08:17:45.419Z,10.82
2018-01-29T08:18:45.428Z,10.81
2018-01-29T08:19:45.139Z,10.86
2018-01-29T08:20:45.734Z,10.81
2018-01-29T08:21:45.623Z,10.92
2018-01-29T08:22:45.440Z,10.84
2018-01-29T08:23:45.520Z,10.94
2018-01-29T08:24:45.807Z,10.92
2018-01-29T08:25:45.240Z,10.87
2018-01-29T08:26:45.826Z,10.92
2018-01-29T08:27:45.583Z,10.94
2018-01-29T08:28:45.843Z,10.93
2018-01-29T08:29:45.547Z,10.9
2018-01-29T08:30:45.573Z,10.86
2018-01-29T08:31:45.952Z,10.92
2018-01-29T08:32:45.347Z,10.9
2018-01-29T08:33:45.890Z,10.93
2018-01-29T08:34:45.967Z,10.87
2018-01-29T08:35:46.038Z,10.94
2018-01-29T08:36:45.684Z,10.94
2018-01-29T08:37:45.995Z,10.92
2018-01-29T08:38:45.401Z,10.87
2018-01-29T08:39:45.700Z,10.92
2018-01-29T08:40:46.067Z,10.93
2018-01-29T08:41:45.479Z,10.9
2018-01-29T08:42:46.110Z,10.93
2018-01-29T08:43:45.824Z,10.99
2018-01-29T08:44:46.085Z,10.9
2018-01-29T08:45:45.527Z,10.96
2018-01-29T08:46:45.575Z,10.93
2018-01-29T08:47:45.871Z,10.94
2018-01-29T08:48:46.159Z,10.96
2018-01-29T08:49:46.199Z,10.96
2018-01-29T08:50:46.151Z,10.96
2018-01-29T08:51:45.889Z,10.96
2018-01-29T08:52:45.951Z,10.93
2018-01-29T08:53:46.219Z,10.94
2018-01-29T08:54:45.960Z,10.96
2018-01-29T08:55:46.259Z,10.94
2018-01-29T08:56:46.233Z,10.94
2018-01-29T08:57:45.693Z,11
2018-01-29T08:58:46.271Z,10.99
2018-01-29T08:59:45.751Z,10.96
2018-01-29T09:00:45.753Z,11
2018-01-29T09:01:45.760Z,10.99
2018-01-29T09:02:46.097Z,10.99
2018-01-29T09:03:46.074Z,11.02
2018-01-29T09:04:46.439Z,10.99
2018-01-29T09:05:46.119Z,11.02
2018-01-29T09:06:46.156Z,11
2018-01-29T09:07:46.160Z,11.02
2018-01-29T09:08:46.168Z,10.99
2018-01-29T09:09:46.431Z,10.99
2018-01-29T09:10:46.515Z,11.05
2018-01-29T09:11:46.500Z,11.05
2018-01-29T09:12:46.505Z,10.97
2018-01-29T09:13:46.018Z,10.94
2018-01-29T09:14:45.983Z,11.02
2018-01-29T09:15:46.548Z,11.02
2018-01-29T09:16:46.287Z,11.08
2018-01-29T09:17:46.556Z,10.94
2018-01-29T09:18:46.294Z,10.99
2018-01-29T09:19:46.049Z,11.05
2018-01-29T09:20:46.064Z,11.04
2018-01-29T09:21:46.361Z,11.04
2018-01-29T09:22:46.394Z,11.02
2018-01-29T09:23:46.110Z,11.1
2018-01-29T09:24:46.165Z,11.1
2018-01-29T09:25:46.157Z,11.05
2018-01-29T09:26:46.446Z,11.14
2018-01-29T09:27:46.418Z,11.11
2018-01-29T09:28:46.786Z,11.1
2018-01-29T09:29:46.181Z,11.07
2018-01-29T09:30:46.520Z,11.22
2018-01-29T09:31:46.232Z,11.1
2018-01-29T09:32:46.803Z,11.14
2018-01-29T09:33:46.840Z,11.19
2018-01-29T09:34:46.613Z,11.14
2018-01-29T09:35:46.850Z,11.11
2018-01-29T09:36:46.626Z,11.15
2018-01-29T09:37:46.848Z,11.15
2018-01-29T09:38:46.936Z,11.25
2018-01-29T09:39:46.631Z,11.22
2018-01-29T09:40:46.346Z,11.29
2018-01-29T09:41:46.638Z,11.23
2018-01-29T09:42:46.417Z,11.32
2018-01-29T09:43:46.415Z,11.27
2018-01-29T09:44:46.766Z,11.22
2018-01-29T09:45:46.757Z,11.35
2018-01-29T09:46:47.003Z,11.37
2018-01-29T09:47:46.496Z,11.4
2018-01-29T09:48:47.045Z,11.35
2018-01-29T09:49:46.775Z,11.35
2018-01-29T09:50:47.088Z,11.4
2018-01-29T09:51:47.095Z,11.4
2018-01-29T09:52:47.166Z,11.41
2018-01-29T09:53:47.131Z,11.37
2018-01-29T09:54:46.870Z,11.37
2018-01-29T09:55:46.585Z,11.43
2018-01-29T09:56:46.927Z,11.37
2018-01-29T09:57:46.943Z,11.47
2018-01-29T09:58:46.640Z,11.43
2018-01-29T09:59:46.967Z,11.47
2018-01-29T10:00:46.921Z,11.45
2018-01-29T10:01:47.213Z,11.47
2018-01-29T10:02:47.320Z,11.5
2018-01-29T10:03:47.337Z,11.51
2018-01-29T10:04:47.035Z,11.45
2018-01-29T10:05:47.025Z,11.47
2018-01-29T10:06:47.055Z,11.47
2018-01-29T10:07:46.813Z,11.51
2018-01-29T10:08:47.103Z,11.55
2018-01-29T10:09:47.111Z,11.48
2018-01-29T10:10:47.113Z,11.48
2018-01-29T10:11:47.412Z,11.51
2018-01-29T10:12:47.418Z,11.51
2018-01-29T10:13:47.169Z,11.45
2018-01-29T10:14:47.144Z,11.45
2018-01-29T10:15:47.429Z,11.47
2018-01-29T10:16:47.213Z,11.52
2018-01-29T10:17:46.980Z,11.47
2018-01-29T10:18:46.951Z,11.47
2018-01-29T10:19:47.230Z,11.54
2018-01-29T10:20:47.538Z,11.52
2018-01-29T10:21:47.276Z,11.54
2018-01-29T10:22:47.418Z,11.52
2018-01-29T10:23:47.304Z,11.54
2018-01-29T10:24:47.340Z,11.59
2018-01-29T10:25:47.056Z,11.63
2018-01-29T10:26:47.060Z,11.62
2018-01-29T10:27:47.653Z,11.62
2018-01-29T10:28:47.659Z,11.57
2018-01-29T10:29:47.404Z,11.68
2018-01-29T10:30:47.410Z,11.59
2018-01-29T10:31:47.457Z,11.69
2018-01-29T10:32:47.754Z,11.65
2018-01-29T10:33:47.777Z,11.7
2018-01-29T10:34:47.212Z,11.66
2018-01-29T10:35:47.776Z,11.72
2018-01-29T10:36:47.754Z,11.75
2018-01-29T10:37:47.766Z,11.7
2018-01-29T10:38:47.358Z,11.73
2018-01-29T10:39:47.548Z,11.75
2018-01-29T10:40:47.579Z,11.69
2018-01-29T10:41:47.611Z,11.72
2018-01-29T10:42:47.889Z,11.66
2018-01-29T10:43:47.909Z,11.73
2018-01-29T10:44:47.372Z,11.8
2018-01-29T10:45:47.970Z,11.84
2018-01-29T10:46:47.987Z,11.81
2018-01-29T10:47:47.697Z,11.8
2018-01-29T10:48:47.418Z,11.78
2018-01-29T10:49:47.424Z,11.69
2018-01-29T10:50:47.412Z,11.69
2018-01-29T10:51:47.705Z,11.75
2018-01-29T10:52:47.724Z,11.75
2018-01-29T10:53:47.950Z,11.72
2018-01-29T10:54:48.073Z,11.9
2018-01-29T10:55:47.810Z,11.87
2018-01-29T10:56:47.834Z,11.84
2018-01-29T10:57:48.124Z,11.88
2018-01-29T10:58:47.964Z,11.88
2018-01-29T10:59:47.827Z,11.9
2018-01-29T11:00:47.580Z,11.87
2018-01-29T11:01:48.185Z,11.9
2018-01-29T11:02:47.930Z,11.99
2018-01-29T11:03:47.663Z,11.9
2018-01-29T11:04:47.971Z,11.87
2018-01-29T11:05:47.943Z,11.9
2018-01-29T11:06:47.659Z,11.9
2018-01-29T11:07:48.239Z,12.03
2018-01-29T11:08:47.967Z,11.99
2018-01-29T11:09:48.030Z,12
2018-01-29T11:10:47.752Z,12.02
2018-01-29T11:11:48.100Z,12.04
2018-01-29T11:12:48.066Z,11.97
2018-01-29T11:13:48.110Z,11.97
2018-01-29T11:14:48.126Z,12.1
2018-01-29T11:15:48.082Z,12.09
2018-01-29T11:16:48.149Z,12.04
2018-01-29T11:17:48.180Z,12.09
2018-01-29T11:18:48.450Z,12.1
2018-01-29T11:19:48.144Z,12.1
2018-01-29T11:20:48.247Z,12.06
2018-01-29T11:21:48.518Z,12.07
2018-01-29T11:22:48.221Z,12.09
2018-01-29T11:23:48.264Z,12.15
2018-01-29T11:24:48.534Z,12.1
2018-01-29T11:25:48.526Z,12.06
2018-01-29T11:26:48.274Z,12.06
2018-01-29T11:27:48.278Z,12.02
2018-01-29T11:28:48.370Z,12.12
2018-01-29T11:29:48.369Z,12.09
2018-01-29T11:30:48.646Z,12.15
2018-01-29T11:31:48.453Z,12.1
2018-01-29T11:32:48.374Z,12.09
2018-01-29T11:33:48.380Z,12.09
2018-01-29T11:34:48.403Z,12.13
2018-01-29T11:35:48.428Z,12.18
2018-01-29T11:36:48.727Z,12.12
2018-01-29T11:37:48.531Z,12.07
2018-01-29T11:38:48.163Z,12.15
2018-01-29T11:39:48.485Z,12.15
2018-01-29T11:40:48.799Z,12.15
2018-01-29T11:41:48.572Z,12.15
2018-01-29T11:42:48.551Z,12.17
2018-01-29T11:43:48.257Z,12.18
2018-01-29T11:44:48.849Z,12.22
2018-01-29T11:45:48.586Z,12.22
2018-01-29T11:46:48.314Z,12.21
2018-01-29T11:47:48.898Z,12.15
2018-01-29T11:48:48.656Z,12.2
2018-01-29T11:49:48.936Z,12.22
2018-01-29T11:50:48.656Z,12.2
2018-01-29T11:51:48.943Z,12.29
2018-01-29T11:52:48.718Z,12.25
2018-01-29T11:53:48.717Z,12.29
2018-01-29T11:54:48.748Z,12.2
2018-01-29T11:55:48.769Z,12.25
2018-01-29T11:56:49.052Z,12.25
2018-01-29T11:57:49.040Z,12.18
2018-01-29T11:58:48.778Z,12.21
2018-01-29T11:59:49.100Z,12.24
2018-01-29T12:00:48.815Z,12.25
2018-01-29T12:01:49.153Z,12.29
2018-01-29T12:02:48.880Z,12.27
2018-01-29T12:03:48.853Z,12.21
2018-01-29T12:04:48.921Z,12.24
2018-01-29T12:05:48.928Z,12.29
2018-01-29T12:06:48.892Z,12.25
2018-01-29T12:07:48.950Z,12.24
2018-01-29T12:08:49.242Z,12.31
2018-01-29T12:09:48.969Z,12.32
2018-01-29T12:10:49.235Z,12.29
2018-01-29T12:11:49.252Z,12.31
2018-01-29T12:12:49.005Z,12.42
2018-01-29T12:13:49.074Z,12.4
2018-01-29T12:14:49.242Z,12.37
2018-01-29T12:15:49.046Z,12.36
2018-01-29T12:16:48.814Z,12.29
2018-01-29T12:17:48.809Z,12.37
2018-01-29T12:18:49.397Z,12.39
2018-01-29T12:19:49.158Z,12.42
2018-01-29T12:20:48.857Z,12.42
2018-01-29T12:21:49.174Z,12.39
2018-01-29T12:22:49.489Z,12.43
2018-01-29T12:23:49.205Z,12.39
2018-01-29T12:24:49.469Z,12.39
2018-01-29T12:25:49.206Z,12.43
2018-01-29T12:26:49.276Z,12.47
2018-01-29T12:27:49.278Z,12.45
2018-01-29T12:28:49.276Z,12.47
2018-01-29T12:29:49.318Z,12.55
2018-01-29T12:30:49.298Z,12.53
2018-01-29T12:31:49.356Z,12.57
2018-01-29T12:32:49.340Z,12.57
2018-01-29T12:33:49.324Z,12.65
2018-01-29T12:34:49.384Z,12.54
2018-01-29T12:35:49.367Z,12.54
2018-01-29T12:36:49.124Z,12.61
2018-01-29T12:37:49.456Z,12.67
2018-01-29T12:38:49.447Z,12.64
2018-01-29T12:39:49.736Z,12.62
2018-01-29T12:40:49.475Z,12.62
2018-01-29T12:41:49.188Z,12.65
2018-01-29T12:42:49.794Z,12.64
2018-01-29T12:43:49.805Z,12.72
2018-01-29T12:44:49.684Z,12.62
2018-01-29T12:45:49.573Z,12.75
2018-01-29T12:46:49.824Z,12.78
2018-01-29T12:47:49.601Z,12.76
2018-01-29T12:48:49.604Z,12.7
2018-01-29T12:49:49.912Z,12.73
2018-01-29T12:50:49.319Z,12.75
2018-01-29T12:51:49.361Z,12.78
2018-01-29T12:52:49.946Z,12.82
2018-01-29T12:53:49.937Z,12.79
2018-01-29T12:54:50.021Z,12.79